Time;durP1;ratioP1;P1;durP2;ratioP2;P2;SDS_P1;SDS_P2;PMS_P1;PMS_P2;Temp;Humidity;BMP_temperature;BMP_pressure;BME280_temperature;BME280_humidity;BME280_pressure;Samples;Min_cycle;Max_cycle;Signal;HPM_P1;HPM_P2
2023/06/16 00:00:11;;;;;;;7.43;6.60;;;27.90;43.80;;;;;;4935446;29;20446;-70
2023/06/16 00:02:43;;;;;;;7.23;6.47;;;27.90;43.80;;;;;;4936101;29;20452;-70
2023/06/16 00:05:11;;;;;;;6.50;5.90;;;27.90;43.80;;;;;;4934794;29;20452;-71
2023/06/16 00:07:39;;;;;;;6.90;6.40;;;27.90;43.90;;;;;;4936466;29;20412;-70
2023/06/16 00:10:09;;;;;;;7.80;7.00;;;27.80;43.80;;;;;;4919389;29;20423;-71
2023/06/16 00:12:36;;;;;;;6.60;6.10;;;27.80;43.90;;;;;;4934994;29;20951;-71
2023/06/16 00:15:04;;;;;;;7.90;6.33;;;27.80;43.90;;;;;;4935997;29;20448;-71
2023/06/16 00:17:31;;;;;;;7.23;6.63;;;27.80;44.00;;;;;;4934303;29;20500;-70
2023/06/16 00:20:00;;;;;;;6.30;5.70;;;27.80;44.00;;;;;;4918478;29;20460;-71
2023/06/16 00:22:28;;;;;;;10.50;6.10;;;27.70;44.00;;;;;;4934745;29;20731;-70
2023/06/16 00:24:59;;;;;;;7.20;6.50;;;27.70;44.00;;;;;;4935465;29;20456;-70
2023/06/16 00:27:25;;;;;;;6.93;6.27;;;27.70;44.00;;;;;;4934571;29;20444;-71
2023/06/16 00:29:51;;;;;;;7.20;6.70;;;27.70;44.00;;;;;;4932726;29;20437;-70
2023/06/16 00:32:17;;;;;;;6.17;5.67;;;27.70;44.10;;;;;;4935698;29;20952;-70
2023/06/16 00:34:46;;;;;;;6.90;6.30;;;27.70;44.20;;;;;;4935241;29;20447;-70
2023/06/16 00:37:12;;;;;;;6.70;6.20;;;27.60;44.10;;;;;;4919136;29;20848;-70
2023/06/16 00:39:40;;;;;;;7.40;6.60;;;27.60;44.20;;;;;;4934713;29;20452;-71
2023/06/16 00:42:08;;;;;;;6.77;6.27;;;27.60;44.30;;;;;;4916332;29;20440;-70
2023/06/16 00:44:37;;;;;;;7.33;6.63;;;27.50;44.30;;;;;;4916432;29;20401;-70
2023/06/16 00:47:05;;;;;;;8.43;6.47;;;27.50;44.30;;;;;;4899882;29;20405;-70
2023/06/16 00:49:36;;;;;;;7.73;7.00;;;27.50;44.40;;;;;;4916665;29;20409;-70
2023/06/16 00:52:10;;;;;;;7.07;6.20;;;27.50;44.50;;;;;;4934892;29;20463;-71
2023/06/16 00:54:41;;;;;;;7.20;6.43;;;27.50;44.60;;;;;;4917935;29;20440;-70
2023/06/16 00:57:07;;;;;;;7.77;7.07;;;27.50;44.60;;;;;;4902719;29;20979;-70
2023/06/16 00:59:36;;;;;;;6.80;6.30;;;27.40;44.70;;;;;;4918506;29;20472;-71
2023/06/16 01:02:03;;;;;;;7.00;6.50;;;27.40;44.70;;;;;;4933955;29;20451;-70
2023/06/16 01:04:29;;;;;;;8.10;7.50;;;27.40;44.70;;;;;;4934270;29;20820;-70
2023/06/16 01:07:37;;;;;;;7.83;6.53;;;27.40;44.80;;;;;;4934059;29;20408;-70
2023/06/16 01:10:13;;;;;;;7.67;6.93;;;27.30;44.80;;;;;;4905195;29;20953;-71
2023/06/16 01:12:43;;;;;;;7.43;6.77;;;27.30;44.90;;;;;;4933226;29;20400;-70
2023/06/16 01:15:15;;;;;;;7.60;6.93;;;27.30;44.90;;;;;;4901970;29;20539;-71
2023/06/16 01:17:46;;;;;;;7.70;7.10;;;27.30;45.00;;;;;;4918489;29;20474;-70
2023/06/16 01:21:08;;;;;;;6.63;6.13;;;27.30;45.00;;;;;;4933990;29;20506;-70
2023/06/16 01:23:53;;;;;;;6.83;6.20;;;27.20;45.30;;;;;;4876273;29;20484;-70
2023/06/16 01:26:23;;;;;;;6.70;6.03;;;27.20;45.10;;;;;;4910085;29;20475;-71
2023/06/16 01:28:52;;;;;;;7.27;6.67;;;27.20;45.20;;;;;;4930688;29;21078;-71
2023/06/16 01:31:21;;;;;;;6.93;6.33;;;27.20;45.30;;;;;;4930882;29;20883;-71
2023/06/16 01:33:50;;;;;;;6.83;6.33;;;27.10;45.30;;;;;;4917905;29;20876;-71
2023/06/16 01:36:22;;;;;;;7.10;6.50;;;27.10;45.30;;;;;;4917314;29;21070;-71
2023/06/16 01:39:00;;;;;;;7.17;6.67;;;27.10;45.30;;;;;;4933491;29;20989;-71
2023/06/16 01:41:27;;;;;;;7.00;6.50;;;27.10;45.30;;;;;;4933409;29;20464;-71
2023/06/16 01:43:54;;;;;;;6.20;5.80;;;27.00;45.50;;;;;;4917720;29;20424;-70
2023/06/16 01:46:30;;;;;;;6.23;5.73;;;27.00;45.30;;;;;;4902137;29;20531;-71
2023/06/16 01:49:04;;;;;;;6.90;6.30;;;27.00;45.40;;;;;;4917820;29;20863;-70
2023/06/16 01:51:33;;;;;;;7.17;6.60;;;27.00;45.40;;;;;;4932407;29;20518;-71
2023/06/16 01:54:03;;;;;;;7.60;6.90;;;27.00;45.40;;;;;;4932900;29;20523;-70
2023/06/16 01:56:30;;;;;;;7.30;6.60;;;27.00;45.50;;;;;;4933001;29;20468;-70
2023/06/16 01:58:56;;;;;;;7.00;6.40;;;26.90;45.50;;;;;;4933109;29;20546;-71
2023/06/16 02:01:29;;;;;;;6.93;6.33;;;26.90;45.50;;;;;;4932716;29;20877;-71
2023/06/16 02:04:17;;;;;;;7.53;7.00;;;26.90;45.50;;;;;;4932723;29;20582;-71
2023/06/16 02:06:55;;;;;;;6.67;6.17;;;26.90;45.50;;;;;;4916555;29;20447;-70
2023/06/16 02:09:25;;;;;;;7.00;6.50;;;26.90;45.60;;;;;;4933067;29;20408;-71
2023/06/16 02:11:54;;;;;;;7.10;6.50;;;26.80;45.60;;;;;;4913544;29;21369;-71
2023/06/16 02:14:21;;;;;;;7.73;6.73;;;26.80;45.70;;;;;;4914177;29;20436;-70
2023/06/16 02:16:53;;;;;;;7.63;7.10;;;26.80;45.70;;;;;;4932852;29;20498;-70
2023/06/16 02:19:19;;;;;;;7.37;6.77;;;26.80;45.70;;;;;;4931655;29;20483;-71
2023/06/16 02:21:47;;;;;;;6.80;6.30;;;26.70;46.20;;;;;;4917235;29;20451;-71
2023/06/16 02:24:15;;;;;;;6.13;5.73;;;26.70;45.70;;;;;;4933009;29;20396;-70
2023/06/16 02:26:42;;;;;;;6.90;6.40;;;26.70;45.70;;;;;;4932363;29;20463;-70
2023/06/16 02:29:13;;;;;;;7.03;6.43;;;26.70;45.80;;;;;;4917307;29;20440;-70
2023/06/16 02:31:45;;;;;;;7.17;6.47;;;26.70;45.80;;;;;;4932494;29;20460;-70
2023/06/16 02:34:13;;;;;;;5.93;5.50;;;26.60;45.70;;;;;;4934033;29;20467;-71
2023/06/16 02:36:39;;;;;;;7.00;6.40;;;26.60;45.80;;;;;;4931972;29;20495;-70
2023/06/16 02:39:08;;;;;;;6.53;5.93;;;26.60;45.90;;;;;;4900358;29;20460;-70
2023/06/16 02:41:36;;;;;;;6.83;6.23;;;26.60;46.00;;;;;;4901299;29;20480;-71
2023/06/16 02:44:05;;;;;;;6.33;5.87;;;26.60;46.00;;;;;;4932825;29;20444;-71
2023/06/16 02:46:33;;;;;;;7.80;7.20;;;26.60;46.00;;;;;;4916504;29;20527;-70
2023/06/16 02:49:01;;;;;;;6.93;6.33;;;26.50;46.00;;;;;;4910021;29;20438;-70
2023/06/16 02:51:26;;;;;;;7.00;6.47;;;26.50;46.00;;;;;;4935901;29;20452;-70
2023/06/16 02:53:55;;;;;;;7.87;6.53;;;26.50;46.00;;;;;;4913406;29;20469;-71
2023/06/16 02:56:23;;;;;;;6.93;6.33;;;26.50;46.00;;;;;;4898030;29;20977;-70
2023/06/16 02:58:52;;;;;;;7.60;6.40;;;26.50;46.00;;;;;;4897942;29;20464;-70
2023/06/16 03:01:21;;;;;;;6.40;5.90;;;26.40;46.00;;;;;;4908168;29;20435;-70
2023/06/16 03:04:17;;;;;;;7.80;7.20;;;26.40;46.00;;;;;;4920591;29;20436;-71
2023/06/16 03:06:57;;;;;;;7.50;6.90;;;26.40;46.10;;;;;;4931617;29;20435;-70
2023/06/16 03:09:34;;;;;;;7.53;6.83;;;26.40;46.10;;;;;;4927195;29;20523;-70
2023/06/16 03:12:08;;;;;;;8.50;7.50;;;26.30;46.00;;;;;;4915857;29;21091;-70
2023/06/16 03:14:38;;;;;;;7.27;6.77;;;26.30;46.10;;;;;;4913414;29;20429;-70
2023/06/16 03:17:14;;;;;;;6.20;5.70;;;26.30;46.10;;;;;;4929447;29;20475;-71
2023/06/16 03:19:42;;;;;;;6.67;6.17;;;26.30;46.10;;;;;;4939423;29;20873;-70
2023/06/16 03:22:12;;;;;;;7.20;6.20;;;26.30;46.20;;;;;;4919952;29;20459;-70
2023/06/16 03:24:43;;;;;;;6.27;5.87;;;26.20;46.10;;;;;;4904284;29;20440;-70
2023/06/16 03:27:15;;;;;;;6.63;6.03;;;26.20;46.20;;;;;;4935822;29;20816;-70
2023/06/16 03:29:59;;;;;;;6.57;6.17;;;26.20;46.20;;;;;;4935835;29;20518;-70
2023/06/16 03:32:29;;;;;;;7.40;6.80;;;26.20;46.30;;;;;;4935869;29;20504;-70
2023/06/16 03:34:57;;;;;;;6.70;6.20;;;26.20;46.30;;;;;;4919981;29;20462;-70
2023/06/16 03:37:27;;;;;;;6.83;6.33;;;26.10;46.30;;;;;;4919817;29;20462;-70
2023/06/16 03:40:04;;;;;;;6.97;6.57;;;26.10;46.30;;;;;;4935558;29;20474;-70
2023/06/16 03:42:30;;;;;;;7.10;6.50;;;26.10;46.40;;;;;;4935726;29;20416;-70
2023/06/16 03:44:56;;;;;;;7.63;6.70;;;26.10;46.40;;;;;;4935643;29;21196;-70
2023/06/16 03:47:27;;;;;;;7.43;6.73;;;26.10;46.40;;;;;;4935342;29;20246;-70
2023/06/16 03:49:58;;;;;;;7.20;6.70;;;26.00;46.40;;;;;;4919749;29;20435;-70
2023/06/16 03:52:24;;;;;;;7.20;6.60;;;26.00;46.40;;;;;;4919605;29;20450;-70
2023/06/16 03:54:50;;;;;;;7.10;6.50;;;26.00;46.40;;;;;;4935353;29;20514;-70
2023/06/16 03:57:18;;;;;;;6.37;5.80;;;26.00;46.50;;;;;;4919611;29;20448;-71
2023/06/16 03:59:44;;;;;;;7.30;6.70;;;26.00;46.50;;;;;;4935074;29;20549;-70
2023/06/16 04:02:13;;;;;;;7.50;6.83;;;26.00;46.50;;;;;;4934863;29;20451;-70
2023/06/16 04:04:47;;;;;;;7.47;6.93;;;25.90;46.50;;;;;;4935925;29;20452;-70
2023/06/16 04:07:17;;;;;;;6.60;6.10;;;25.90;46.50;;;;;;4934746;29;20415;-71
2023/06/16 04:09:48;;;;;;;6.93;6.43;;;25.90;46.50;;;;;;4903851;29;20427;-70
2023/06/16 04:12:16;;;;;;;6.33;5.80;;;25.90;46.60;;;;;;4918926;29;20523;-70
2023/06/16 04:14:42;;;;;;;7.20;6.60;;;25.80;46.60;;;;;;4919293;29;21021;-70
2023/06/16 04:17:12;;;;;;;7.00;6.40;;;25.80;46.60;;;;;;4903870;29;21234;-70
2023/06/16 04:19:46;;;;;;;6.80;6.30;;;25.80;46.70;;;;;;4934798;29;20904;-70
2023/06/16 04:22:14;;;;;;;8.93;6.63;;;25.80;46.70;;;;;;4904514;29;20456;-70
2023/06/16 04:24:53;;;;;;;6.97;6.37;;;25.80;46.70;;;;;;4934461;29;20447;-70
2023/06/16 04:27:22;;;;;;;7.33;6.80;;;25.80;46.80;;;;;;4919623;29;20474;-70
2023/06/16 04:29:50;;;;;;;6.60;6.00;;;25.80;46.80;;;;;;4918671;29;20448;-70
2023/06/16 04:32:17;;;;;;;6.60;5.90;;;25.70;46.80;;;;;;4934631;29;20823;-70
2023/06/16 04:34:49;;;;;;;7.03;6.47;;;25.70;46.80;;;;;;4931159;29;21025;-70
2023/06/16 04:37:16;;;;;;;7.57;6.87;;;25.70;46.90;;;;;;4916146;29;20421;-70
2023/06/16 04:39:42;;;;;;;7.47;6.87;;;25.70;46.90;;;;;;4919702;29;20460;-70
2023/06/16 04:42:15;;;;;;;6.70;6.20;;;25.70;46.90;;;;;;4918630;29;20467;-71
2023/06/16 04:44:41;;;;;;;7.57;6.97;;;25.60;47.00;;;;;;4918593;29;20435;-71
2023/06/16 04:47:12;;;;;;;7.50;6.73;;;25.60;47.00;;;;;;4934781;29;20830;-71
2023/06/16 04:49:41;;;;;;;6.60;6.20;;;25.60;47.10;;;;;;4918467;29;20423;-71
2023/06/16 04:52:09;;;;;;;7.47;6.80;;;25.60;47.10;;;;;;4918345;29;20836;-70
2023/06/16 04:54:35;;;;;;;6.60;6.00;;;25.60;47.10;;;;;;4914654;29;20456;-71
2023/06/16 04:57:02;;;;;;;6.87;6.40;;;25.60;47.20;;;;;;4931183;29;20421;-71
2023/06/16 04:59:31;;;;;;;6.90;6.30;;;25.60;47.30;;;;;;4922757;29;20472;-71
2023/06/16 05:01:58;;;;;;;6.90;6.30;;;25.60;47.40;;;;;;4899642;29;20966;-71
2023/06/16 05:04:24;;;;;;;7.20;6.60;;;25.50;47.30;;;;;;4911291;29;20436;-71
2023/06/16 05:06:50;;;;;;;7.40;6.80;;;25.50;47.40;;;;;;4899128;29;20451;-70
2023/06/16 05:09:20;;;;;;;6.63;5.97;;;25.50;47.50;;;;;;4919035;29;20562;-70
2023/06/16 05:11:47;;;;;;;7.10;6.47;;;25.50;47.50;;;;;;4915452;29;20451;-72
2023/06/16 05:14:13;;;;;;;6.97;6.30;;;25.50;47.60;;;;;;4909487;29;20503;-72
2023/06/16 05:16:41;;;;;;;7.80;7.13;;;25.50;47.70;;;;;;4900447;29;20456;-70
2023/06/16 05:19:08;;;;;;;7.07;6.57;;;25.50;47.70;;;;;;4933107;29;20522;-70
2023/06/16 05:21:42;;;;;;;6.43;5.87;;;25.50;47.80;;;;;;4903184;29;21027;-71
2023/06/16 05:24:10;;;;;;;11.13;6.30;;;25.40;47.80;;;;;;4918297;29;20502;-71
2023/06/16 05:26:37;;;;;;;6.67;6.17;;;25.40;47.80;;;;;;4917916;29;21118;-71
2023/06/16 05:29:08;;;;;;;7.30;6.70;;;25.40;47.80;;;;;;4932695;29;20440;-71
2023/06/16 05:31:35;;;;;;;6.80;6.20;;;25.40;47.90;;;;;;4934743;29;20411;-71
2023/06/16 05:34:01;;;;;;;7.33;6.83;;;25.40;48.00;;;;;;4917945;29;20486;-72
2023/06/16 05:36:30;;;;;;;7.17;6.67;;;25.40;48.00;;;;;;4933204;29;20462;-71
2023/06/16 05:38:59;;;;;;;6.97;6.07;;;25.40;48.10;;;;;;4921005;29;21157;-73
2023/06/16 05:41:27;;;;;;;7.90;6.50;;;25.40;48.10;;;;;;4917633;29;20443;-71
2023/06/16 05:43:57;;;;;;;7.37;6.67;;;25.40;48.10;;;;;;4928046;29;20432;-72
2023/06/16 05:46:25;;;;;;;6.60;6.10;;;25.40;48.20;;;;;;4931483;29;20471;-71
2023/06/16 05:48:54;;;;;;;7.30;6.57;;;25.40;48.20;;;;;;4916479;29;20468;-70
2023/06/16 05:51:23;;;;;;;16.50;6.97;;;25.30;48.20;;;;;;4918039;29;20440;-70
2023/06/16 05:53:49;;;;;;;11.10;7.00;;;25.30;48.20;;;;;;4930413;29;20505;-69
2023/06/16 05:56:23;;;;;;;8.57;7.80;;;25.30;48.00;;;;;;4911647;29;20507;-69
2023/06/16 05:58:50;;;;;;;7.73;6.67;;;25.20;48.20;;;;;;4915888;29;20474;-69
2023/06/16 06:01:16;;;;;;;6.93;6.33;;;25.00;48.50;;;;;;4918139;29;20901;-69
2023/06/16 06:03:46;;;;;;;9.30;6.70;;;24.80;48.80;;;;;;4930377;29;20915;-69
2023/06/16 06:06:15;;;;;;;7.90;7.20;;;24.60;49.00;;;;;;4927785;29;20539;-70
2023/06/16 06:08:45;;;;;;;9.10;7.07;;;24.50;49.80;;;;;;4937839;29;20415;-70
2023/06/16 06:11:16;;;;;;;7.80;7.10;;;24.30;49.90;;;;;;4903219;29;20479;-70
2023/06/16 06:13:45;;;;;;;8.77;6.87;;;24.20;49.90;;;;;;4934008;29;20543;-70
2023/06/16 06:16:14;;;;;;;6.90;6.20;;;24.10;50.10;;;;;;4915373;29;20507;-69
2023/06/16 06:18:43;;;;;;;7.37;6.77;;;24.00;50.40;;;;;;4907366;29;20456;-72
2023/06/16 06:21:12;;;;;;;7.50;6.80;;;23.90;50.30;;;;;;4933211;29;20431;-69
2023/06/16 06:23:43;;;;;;;6.43;5.93;;;23.80;50.20;;;;;;4915456;29;20454;-68
2023/06/16 06:26:10;;;;;;;8.87;7.40;;;23.80;50.10;;;;;;4931650;29;20460;-69
2023/06/16 06:28:39;;;;;;;7.50;6.90;;;23.90;50.10;;;;;;4932742;29;21066;-69
2023/06/16 06:31:07;;;;;;;9.83;6.50;;;23.90;50.00;;;;;;4920082;29;20495;-69
2023/06/16 06:33:39;;;;;;;7.10;6.37;;;24.00;49.90;;;;;;4917143;29;20463;-70
2023/06/16 06:36:05;;;;;;;7.63;6.90;;;24.10;49.90;;;;;;4916595;29;20497;-69
2023/06/16 06:38:31;;;;;;;8.07;6.10;;;24.10;49.70;;;;;;4908931;29;20417;-69
2023/06/16 06:41:01;;;;;;;7.17;6.47;;;24.20;49.60;;;;;;4932277;29;20440;-69
2023/06/16 06:43:27;;;;;;;7.80;6.30;;;24.20;49.50;;;;;;4900167;29;20428;-69
2023/06/16 06:46:04;;;;;;;6.87;6.27;;;24.30;49.40;;;;;;4936155;29;20463;-71
2023/06/16 06:48:35;;;;;;;8.20;6.40;;;24.40;49.20;;;;;;4914123;29;20808;-71
2023/06/16 06:51:08;;;;;;;7.03;6.33;;;24.40;49.10;;;;;;4917010;29;21028;-72
2023/06/16 06:53:34;;;;;;;6.80;6.10;;;24.50;49.00;;;;;;4933224;29;21115;-70
2023/06/16 06:56:03;;;;;;;6.80;6.23;;;24.50;48.80;;;;;;4936049;29;20840;-70
2023/06/16 06:58:29;;;;;;;6.57;6.07;;;24.50;48.80;;;;;;4919868;29;20440;-70
2023/06/16 07:01:02;;;;;;;7.00;5.80;;;24.60;48.80;;;;;;4935572;29;20498;-71
2023/06/16 07:03:36;;;;;;;7.13;6.53;;;24.70;48.70;;;;;;4936045;29;20431;-70
2023/06/16 07:06:01;;;;;;;5.80;5.40;;;24.70;48.60;;;;;;4920155;29;20458;-69
2023/06/16 07:08:30;;;;;;;6.80;6.30;;;24.70;48.40;;;;;;4935854;29;20427;-71
2023/06/16 07:10:58;;;;;;;6.30;5.80;;;24.70;48.30;;;;;;4936429;29;20439;-70
2023/06/16 07:13:26;;;;;;;7.33;6.63;;;24.80;48.40;;;;;;4935695;29;20424;-73
2023/06/16 07:15:55;;;;;;;7.00;6.50;;;24.80;48.30;;;;;;4935951;29;20435;-70
2023/06/16 07:18:26;;;;;;;6.30;5.73;;;24.80;48.10;;;;;;4935344;29;20408;-72
2023/06/16 07:20:52;;;;;;;7.90;7.10;;;24.90;48.20;;;;;;4936544;29;20587;-71
2023/06/16 07:23:20;;;;;;;6.83;6.27;;;24.90;48.10;;;;;;4919581;29;20522;-69
2023/06/16 07:25:48;;;;;;;6.87;6.37;;;24.90;48.00;;;;;;4936450;29;20455;-69
2023/06/16 07:28:16;;;;;;;7.03;6.53;;;24.90;48.00;;;;;;4919981;29;20446;-72
2023/06/16 07:30:42;;;;;;;6.30;5.80;;;24.90;47.90;;;;;;4931064;29;20440;-72
2023/06/16 07:33:08;;;;;;;7.27;6.10;;;25.00;47.80;;;;;;4936265;29;20892;-72
2023/06/16 07:35:36;;;;;;;6.97;5.83;;;25.00;47.80;;;;;;4932429;29;20212;-70
2023/06/16 07:38:02;;;;;;;9.73;5.80;;;25.00;47.70;;;;;;4920447;29;20455;-70
2023/06/16 07:40:36;;;;;;;6.80;6.20;;;25.00;47.70;;;;;;4934564;29;20522;-70
2023/06/16 07:43:07;;;;;;;6.93;6.37;;;25.10;47.70;;;;;;4936141;29;20865;-70
2023/06/16 07:45:38;;;;;;;7.70;6.77;;;25.10;47.60;;;;;;4946837;23;20511;-75
2023/06/16 07:48:07;;;;;;;5.87;5.47;;;25.10;47.50;;;;;;4935944;29;20934;-75
2023/06/16 07:50:36;;;;;;;6.27;5.57;;;25.10;47.40;;;;;;4926538;29;20451;-76
2023/06/16 07:53:02;;;;;;;6.77;6.20;;;25.10;47.40;;;;;;4928699;29;20423;-73
2023/06/16 07:55:33;;;;;;;6.70;6.20;;;25.20;47.30;;;;;;4950810;29;20447;-72
2023/06/16 07:58:06;;;;;;;6.80;6.30;;;25.20;47.20;;;;;;4927173;29;20508;-72
2023/06/16 08:00:32;;;;;;;5.73;5.33;;;25.20;47.10;;;;;;4917508;29;20467;-72
2023/06/16 08:02:58;;;;;;;6.73;6.23;;;25.20;47.10;;;;;;4929814;29;20432;-72
2023/06/16 08:05:24;;;;;;;7.20;6.60;;;25.20;47.00;;;;;;4917058;29;20856;-72
2023/06/16 08:07:52;;;;;;;6.40;5.80;;;25.20;46.90;;;;;;4918949;29;20186;-72
2023/06/16 08:10:20;;;;;;;5.97;5.50;;;25.30;46.90;;;;;;4918646;29;20480;-72
2023/06/16 08:12:51;;;;;;;6.63;6.13;;;25.30;46.80;;;;;;4927777;29;20478;-72
2023/06/16 08:15:18;;;;;;;6.63;6.13;;;25.30;46.70;;;;;;4923987;29;20471;-72
2023/06/16 08:17:45;;;;;;;6.17;5.70;;;25.30;46.40;;;;;;4916925;29;20923;-72
2023/06/16 08:20:13;;;;;;;7.20;6.70;;;25.40;46.30;;;;;;4903837;29;20463;-72
2023/06/16 08:22:41;;;;;;;6.20;5.77;;;25.30;46.20;;;;;;4917904;29;20499;-72
2023/06/16 08:25:10;;;;;;;6.33;5.90;;;25.40;46.30;;;;;;4915664;29;20457;-72
2023/06/16 08:27:36;;;;;;;7.03;6.53;;;25.40;46.30;;;;;;4929992;29;20431;-72
2023/06/16 08:30:05;;;;;;;6.73;6.23;;;25.40;46.30;;;;;;4918170;29;20879;-72
2023/06/16 08:32:33;;;;;;;6.17;5.70;;;25.40;46.10;;;;;;4914260;29;20455;-72
2023/06/16 08:35:05;;;;;;;6.23;5.80;;;25.50;46.20;;;;;;4931626;29;20487;-72
2023/06/16 08:37:31;;;;;;;6.47;6.07;;;25.50;46.30;;;;;;4933425;29;20494;-72
2023/06/16 08:39:58;;;;;;;6.10;5.60;;;25.50;46.10;;;;;;4933583;29;20879;-72
2023/06/16 08:42:26;;;;;;;6.27;5.77;;;25.60;46.00;;;;;;4945678;29;20893;-72
2023/06/16 08:44:55;;;;;;;7.23;6.63;;;25.60;45.80;;;;;;4902146;29;20842;-72
2023/06/16 08:47:22;;;;;;;6.37;5.87;;;25.60;45.60;;;;;;4924487;29;21120;-72
2023/06/16 08:49:52;;;;;;;6.97;5.20;;;25.60;45.50;;;;;;4932683;29;20483;-72
2023/06/16 08:52:21;;;;;;;6.83;6.33;;;25.60;45.50;;;;;;4929110;29;20425;-72
2023/06/16 08:54:57;;;;;;;7.67;7.07;;;25.70;45.20;;;;;;4919559;29;20995;-72
2023/06/16 08:57:27;;;;;;;6.83;6.33;;;25.70;45.10;;;;;;4928552;29;21113;-72
2023/06/16 08:59:56;;;;;;;7.40;6.90;;;25.80;45.10;;;;;;4925374;29;20426;-73
2023/06/16 09:02:23;;;;;;;6.60;6.10;;;25.80;45.00;;;;;;4933504;29;20815;-74
2023/06/16 09:04:50;;;;;;;7.07;6.47;;;25.80;45.10;;;;;;4932683;29;20522;-73
2023/06/16 09:07:19;;;;;;;6.77;6.17;;;25.90;45.00;;;;;;4932481;29;20460;-73
2023/06/16 09:09:50;;;;;;;9.23;7.43;;;25.90;44.80;;;;;;4917125;29;20503;-72
2023/06/16 09:12:18;;;;;;;7.10;6.50;;;25.90;44.80;;;;;;4933711;29;20599;-72
2023/06/16 09:14:49;;;;;;;6.57;6.07;;;25.90;44.70;;;;;;4932461;29;20826;-73
2023/06/16 09:17:24;;;;;;;6.63;5.97;;;25.90;44.80;;;;;;4916226;29;20417;-72
2023/06/16 09:19:52;;;;;;;6.20;5.70;;;26.00;44.90;;;;;;4946215;29;20421;-71
2023/06/16 09:22:25;;;;;;;8.60;5.80;;;26.00;44.60;;;;;;4920013;29;20552;-73
2023/06/16 09:24:58;;;;;;;6.70;6.17;;;26.00;44.60;;;;;;4917124;29;20444;-73
2023/06/16 09:27:46;;;;;;;7.30;6.60;;;26.00;44.50;;;;;;4919454;29;20431;-72
2023/06/16 09:30:14;;;;;;;7.40;6.63;;;26.10;44.50;;;;;;4905155;29;20468;-73
2023/06/16 09:32:41;;;;;;;6.83;6.13;;;26.10;44.40;;;;;;4914580;29;20428;-72
2023/06/16 09:35:24;;;;;;;6.53;5.97;;;26.10;44.40;;;;;;4929207;29;20468;-72
2023/06/16 09:38:00;;;;;;;7.30;6.80;;;26.20;44.40;;;;;;4931128;29;20439;-75
2023/06/16 09:40:33;;;;;;;6.73;6.13;;;26.20;44.40;;;;;;4918484;29;20526;-76
2023/06/16 09:43:04;;;;;;;7.10;6.50;;;26.20;44.50;;;;;;4933048;29;20458;-74
2023/06/16 09:45:32;;;;;;;7.63;7.13;;;26.20;44.40;;;;;;4911721;29;20900;-74
2023/06/16 09:48:08;;;;;;;7.90;6.43;;;26.30;44.70;;;;;;4912804;29;20444;-73
2023/06/16 09:50:40;;;;;;;7.03;6.50;;;26.30;44.50;;;;;;4923711;29;20482;-74
2023/06/16 09:53:09;;;;;;;6.80;6.30;;;26.30;44.40;;;;;;4913674;29;20528;-74
2023/06/16 09:55:39;;;;;;;6.93;6.43;;;26.40;44.50;;;;;;4910339;29;20476;-74
2023/06/16 09:58:05;;;;;;;6.97;6.47;;;26.40;44.50;;;;;;4922014;29;20455;-73
2023/06/16 10:00:32;;;;;;;6.87;6.47;;;26.40;44.30;;;;;;4914282;29;20504;-71
2023/06/16 10:03:01;;;;;;;6.70;6.23;;;26.50;44.30;;;;;;4914065;29;20450;-70
2023/06/16 10:05:32;;;;;;;7.20;6.50;;;26.50;44.30;;;;;;4914859;29;20875;-70
2023/06/16 10:08:05;;;;;;;7.50;6.90;;;26.60;44.20;;;;;;4921589;29;20466;-71
2023/06/16 10:10:33;;;;;;;6.83;6.10;;;26.60;44.10;;;;;;4933184;29;20460;-70
2023/06/16 10:13:11;;;;;;;6.83;6.33;;;26.60;44.00;;;;;;4933615;29;20431;-70
2023/06/16 10:15:46;;;;;;;6.73;6.23;;;26.60;44.00;;;;;;4898146;29;20440;-70
2023/06/16 10:18:17;;;;;;;7.37;6.73;;;26.70;43.90;;;;;;4901437;29;20428;-70
2023/06/16 10:20:46;;;;;;;6.30;5.70;;;26.70;43.80;;;;;;4918276;29;20946;-70
2023/06/16 10:23:12;;;;;;;7.60;7.10;;;26.70;43.80;;;;;;4921896;29;20547;-70
2023/06/16 10:25:45;;;;;;;7.43;6.93;;;26.80;43.60;;;;;;4932063;29;20507;-70
2023/06/16 10:28:14;;;;;;;7.90;7.30;;;26.80;43.60;;;;;;4923591;29;20452;-70
2023/06/16 10:30:43;;;;;;;7.00;6.50;;;26.80;43.40;;;;;;4922505;29;20474;-70
2023/06/16 10:33:18;;;;;;;8.13;7.53;;;26.90;43.30;;;;;;4928383;29;20464;-70
2023/06/16 10:35:53;;;;;;;8.20;7.50;;;26.90;43.10;;;;;;4928085;29;20495;-70
2023/06/16 10:38:31;;;;;;;7.37;6.77;;;27.00;43.10;;;;;;4914468;29;20583;-70
2023/06/16 10:40:58;;;;;;;8.67;6.53;;;27.00;42.80;;;;;;4914915;29;20431;-70
2023/06/16 10:43:28;;;;;;;7.50;6.90;;;27.00;42.70;;;;;;4921052;29;20494;-69
2023/06/16 10:46:17;;;;;;;6.90;6.40;;;27.00;42.80;;;;;;4929681;29;20467;-81
2023/06/16 10:48:57;;;;;;;7.60;7.00;;;27.10;42.60;;;;;;4920528;29;20451;-76
2023/06/16 10:51:49;;;;;;;10.87;6.67;;;27.10;42.50;;;;;;4924155;29;20490;-75
2023/06/16 10:54:37;;;;;;;7.60;7.00;;;27.10;42.50;;;;;;4908584;29;20975;-74
2023/06/16 10:57:04;;;;;;;7.27;6.47;;;27.20;42.60;;;;;;4896487;29;20496;-75
2023/06/16 10:59:50;;;;;;;6.97;6.57;;;27.20;42.50;;;;;;4914392;29;20972;-75
2023/06/16 11:02:23;;;;;;;6.57;6.07;;;27.20;42.50;;;;;;4896028;29;20424;-75
2023/06/16 11:05:07;;;;;;;6.93;6.23;;;27.30;42.60;;;;;;4921507;29;20431;-75
2023/06/16 11:07:40;;;;;;;6.33;5.83;;;27.30;42.50;;;;;;4946398;29;20396;-75
2023/06/16 11:10:11;;;;;;;7.10;6.50;;;27.40;42.50;;;;;;4932061;29;20526;-75
2023/06/16 11:12:40;;;;;;;7.03;6.53;;;27.40;42.40;;;;;;4932156;29;20506;-75
2023/06/16 11:15:09;;;;;;;6.37;5.77;;;27.40;42.30;;;;;;4932481;29;20976;-75
2023/06/16 11:17:44;;;;;;;7.40;6.70;;;27.40;42.40;;;;;;4918860;29;20456;-74
2023/06/16 11:20:13;;;;;;;8.03;7.33;;;27.50;42.50;;;;;;4930529;29;20440;-73
2023/06/16 11:22:42;;;;;;;7.87;7.27;;;27.50;42.40;;;;;;4946435;29;20432;-75
2023/06/16 11:25:14;;;;;;;7.63;6.93;;;27.60;42.50;;;;;;4930451;29;20478;-74
2023/06/16 11:27:42;;;;;;;6.37;5.97;;;27.60;42.80;;;;;;4926328;29;20501;-75
2023/06/16 11:30:11;;;;;;;7.53;6.83;;;27.60;42.10;;;;;;4896488;29;20535;-75
2023/06/16 11:32:40;;;;;;;8.83;8.10;;;27.70;42.30;;;;;;4912103;29;20496;-75
2023/06/16 11:35:09;;;;;;;8.33;7.73;;;27.70;42.10;;;;;;4896219;29;20504;-75
2023/06/16 11:37:50;;;;;;;8.20;7.60;;;27.80;42.10;;;;;;4911679;29;20435;-75
2023/06/16 11:40:22;;;;;;;8.37;7.57;;;27.80;42.30;;;;;;4913954;29;20448;-75
2023/06/16 11:43:05;;;;;;;8.17;7.47;;;27.80;42.20;;;;;;4900043;29;20429;-76
2023/06/16 11:45:36;;;;;;;7.23;6.63;;;27.90;42.30;;;;;;4900541;29;20474;-75
2023/06/16 11:48:08;;;;;;;7.83;7.27;;;27.90;42.20;;;;;;4916324;29;20433;-75
2023/06/16 11:50:39;;;;;;;6.97;6.33;;;27.90;42.10;;;;;;4926727;29;20551;-75
2023/06/16 11:53:12;;;;;;;8.37;7.70;;;28.00;42.20;;;;;;4934191;29;20412;-75
2023/06/16 11:55:38;;;;;;;8.97;8.37;;;28.00;42.00;;;;;;4933570;29;20440;-74
2023/06/16 11:58:04;;;;;;;7.30;6.70;;;28.00;42.70;;;;;;4918315;29;20508;-75
2023/06/16 12:00:32;;;;;;;7.80;7.20;;;28.00;42.00;;;;;;4933968;29;20183;-75
2023/06/16 12:02:59;;;;;;;7.00;6.30;;;28.10;42.50;;;;;;4928225;29;20499;-75
2023/06/16 12:05:31;;;;;;;7.00;6.50;;;28.10;41.80;;;;;;4915286;29;20464;-76
2023/06/16 12:07:59;;;;;;;7.97;7.33;;;28.10;42.00;;;;;;4915142;29;20535;-75
2023/06/16 12:10:28;;;;;;;7.97;7.27;;;28.20;41.90;;;;;;4914541;29;21145;-75
2023/06/16 12:12:54;;;;;;;7.30;6.70;;;28.10;41.90;;;;;;4931711;29;20451;-75
2023/06/16 12:15:22;;;;;;;9.80;6.90;;;28.20;41.90;;;;;;4936563;29;20459;-75
2023/06/16 12:17:48;;;;;;;8.00;7.20;;;28.20;41.70;;;;;;4915589;29;20448;-76
2023/06/16 12:20:18;;;;;;;7.00;6.50;;;28.20;41.50;;;;;;4931756;29;20824;-75
2023/06/16 12:22:46;;;;;;;7.97;7.37;;;28.30;41.80;;;;;;4903437;29;20471;-75
2023/06/16 12:25:19;;;;;;;8.20;7.60;;;28.30;41.70;;;;;;4950023;29;20462;-75
2023/06/16 12:27:49;;;;;;;9.90;6.93;;;28.30;41.40;;;;;;4919112;29;20436;-75
2023/06/16 12:30:20;;;;;;;7.37;6.77;;;28.40;41.60;;;;;;4913699;29;20471;-75
2023/06/16 12:32:46;;;;;;;9.03;8.27;;;28.40;41.40;;;;;;4915981;29;20889;-74
2023/06/16 12:35:26;;;;;;;8.90;8.10;;;28.40;41.40;;;;;;4923855;29;20462;-74
2023/06/16 12:37:58;;;;;;;7.30;6.60;;;28.40;41.70;;;;;;4950330;29;20443;-74
2023/06/16 12:40:31;;;;;;;7.70;7.10;;;28.50;41.40;;;;;;4934707;29;20432;-74
2023/06/16 12:43:21;;;;;;;8.30;7.60;;;28.50;41.40;;;;;;4934713;29;20436;-74
2023/06/16 12:45:47;;;;;;;8.27;7.67;;;28.50;41.60;;;;;;4933963;29;20497;-74
2023/06/16 12:48:14;;;;;;;7.30;6.80;;;28.60;41.60;;;;;;4915115;29;20428;-74
2023/06/16 12:50:42;;;;;;;7.57;6.87;;;28.60;41.40;;;;;;4933822;29;21108;-75
2023/06/16 12:53:08;;;;;;;7.63;7.00;;;28.60;41.60;;;;;;4907782;29;20417;-74
2023/06/16 12:55:34;;;;;;;8.37;7.77;;;28.70;41.50;;;;;;4899667;29;20850;-74
2023/06/16 12:58:00;;;;;;;7.60;7.00;;;28.70;41.60;;;;;;4910393;29;20548;-75
2023/06/16 13:00:29;;;;;;;7.90;7.20;;;28.70;41.40;;;;;;4934149;29;20468;-74